March Air Force Base, California
Current Conditions -  °F | °C
As of 3:52 AM on Sunday 23 Nov 2014 (Local Time) from KTRM Reporting Station
Clear Clear  
Wind Chill: 58°   Ceiling: Unl
Heat Index: 58°   Visibility: 10mi
Dew Point: 41°   Wind: 8mph
Humidity: 53%   Direction: 320°NW
Pressure: 29.97"   Gusts: NA
Location:  33.7529°N, 116.0556°W
Report Text: KTRM 231152Z AUTO 32007KT 10SM CLR 14/05 A2997 RMK AO2 SLP150 T01440050 10150 20072 53020 TSNO
Loading
Personal Weather Stations






























Interactive Weather Map New forecast layout! Learn more

10-Day Weather Forecast

Advertisements
Track Severe Weather on mobile